createdAt,value
2018-03-25T00:00:24.125Z,30.50
2018-03-25T00:01:24.062Z,31.10
2018-03-25T00:03:17.503Z,31.90
2018-03-25T00:04:17.973Z,30.70
2018-03-25T00:06:10.326Z,29.90
2018-03-25T00:07:10.318Z,31.40
2018-03-25T00:09:10.741Z,33.60
2018-03-25T00:10:10.650Z,29.90
2018-03-25T00:12:04.024Z,31.60
2018-03-25T00:13:03.998Z,31.30
2018-03-25T00:14:58.911Z,30.50
2018-03-25T00:15:58.748Z,30.30
2018-03-25T00:17:51.563Z,28.80
2018-03-25T00:18:51.823Z,25.30
2018-03-25T00:20:45.340Z,27.90
2018-03-25T00:21:44.594Z,28.10
2018-03-25T00:23:38.940Z,30.80
2018-03-25T00:24:38.506Z,25.30
2018-03-25T00:26:32.656Z,27.30
2018-03-25T00:27:32.027Z,26.50
2018-03-25T00:29:25.661Z,30.00
2018-03-25T00:30:25.311Z,30.90
2018-03-25T00:32:19.016Z,29.60
2018-03-25T00:33:18.571Z,28.90
2018-03-25T00:35:12.343Z,31.70
2018-03-25T00:36:11.959Z,29.70
2018-03-25T00:38:05.704Z,31.60
2018-03-25T00:39:05.338Z,28.00
2018-03-25T00:40:59.588Z,28.80
2018-03-25T00:41:58.660Z,27.90
2018-03-25T00:43:52.061Z,29.60
2018-03-25T00:44:51.967Z,30.20
2018-03-25T00:46:45.947Z,34.80
2018-03-25T00:47:45.912Z,32.90
2018-03-25T00:49:38.970Z,31.40
2018-03-25T00:50:38.658Z,31.90
2018-03-25T00:52:32.061Z,29.40
2018-03-25T00:53:32.024Z,30.30
2018-03-25T00:55:25.466Z,30.90
2018-03-25T00:56:25.377Z,31.80
2018-03-25T00:58:19.094Z,34.00
2018-03-25T00:59:19.148Z,35.70
2018-03-25T01:01:12.479Z,32.20
2018-03-25T01:02:12.091Z,30.70
2018-03-25T01:04:05.581Z,30.90
2018-03-25T01:05:05.436Z,29.30
2018-03-25T01:06:59.181Z,28.20
2018-03-25T01:07:59.357Z,30.10
2018-03-25T01:09:52.257Z,30.90
2018-03-25T01:10:52.148Z,31.70
2018-03-25T01:12:45.827Z,31.20
2018-03-25T01:13:45.528Z,32.20
2018-03-25T01:15:39.265Z,31.80
2018-03-25T01:16:38.840Z,31.80
2018-03-25T01:18:32.875Z,31.80
2018-03-25T01:19:32.198Z,33.80
2018-03-25T01:21:25.620Z,31.30
2018-03-25T01:22:25.547Z,35.50
2018-03-25T01:24:19.446Z,34.90
2018-03-25T01:25:19.837Z,37.00
2018-03-25T01:27:13.369Z,31.60
2018-03-25T01:28:12.202Z,34.80
2018-03-25T01:30:05.988Z,30.70
2018-03-25T01:31:06.159Z,30.50
2018-03-25T01:33:00.075Z,32.70
2018-03-25T01:33:58.512Z,31.90
2018-03-25T01:35:52.792Z,33.90
2018-03-25T01:36:52.677Z,31.30
2018-03-25T01:38:46.100Z,31.50
2018-03-25T01:39:46.027Z,31.10
2018-03-25T01:41:39.411Z,34.10
2018-03-25T01:42:39.396Z,32.30
2018-03-25T01:44:32.606Z,31.70
2018-03-25T01:45:32.225Z,32.60
2018-03-25T01:47:25.623Z,31.50
2018-03-25T01:48:25.570Z,34.10
2018-03-25T01:50:18.978Z,33.00
2018-03-25T01:51:18.922Z,34.60
2018-03-25T01:53:12.517Z,32.20
2018-03-25T01:54:12.265Z,31.60
2018-03-25T01:56:05.660Z,31.30
2018-03-25T01:57:05.619Z,31.50
2018-03-25T01:58:59.002Z,31.60
2018-03-25T01:59:58.974Z,31.20
2018-03-25T02:01:52.436Z,30.20
2018-03-25T02:02:52.871Z,32.50
2018-03-25T02:04:45.457Z,34.60
2018-03-25T02:05:45.197Z,35.70
2018-03-25T02:07:38.522Z,33.90
2018-03-25T02:08:38.489Z,32.20
2018-03-25T02:10:31.923Z,32.10
2018-03-25T02:11:32.439Z,33.00
2018-03-25T02:13:25.247Z,31.70
2018-03-25T02:14:25.215Z,33.80
2018-03-25T02:16:18.976Z,31.90
2018-03-25T02:17:18.907Z,36.30
2018-03-25T02:19:12.313Z,38.70
2018-03-25T02:20:12.265Z,33.50
2018-03-25T02:22:06.462Z,32.50
2018-03-25T02:23:05.663Z,35.20
2018-03-25T02:24:59.063Z,34.60
2018-03-25T02:25:59.010Z,35.30
2018-03-25T02:27:52.353Z,34.60
2018-03-25T02:28:52.325Z,33.00
2018-03-25T02:30:45.838Z,39.30
2018-03-25T02:31:45.693Z,43.20
2018-03-25T02:33:39.120Z,48.50
2018-03-25T02:34:39.015Z,45.80
2018-03-25T02:36:32.707Z,38.70
2018-03-25T02:37:32.435Z,41.10
2018-03-25T02:39:25.727Z,39.70
2018-03-25T02:40:25.250Z,42.40
2018-03-25T02:42:18.660Z,36.00
2018-03-25T02:43:18.614Z,32.60
2018-03-25T02:45:12.020Z,33.20
2018-03-25T02:46:11.969Z,34.90
2018-03-25T02:48:05.664Z,36.00
2018-03-25T02:49:05.295Z,38.30
2018-03-25T02:51:00.712Z,39.30
2018-03-25T02:51:59.663Z,38.20
2018-03-25T02:53:55.598Z,36.80
2018-03-25T02:54:55.588Z,38.90
2018-03-25T02:56:48.966Z,37.50
2018-03-25T02:57:48.921Z,38.80
2018-03-25T02:59:42.639Z,35.60
2018-03-25T03:00:42.303Z,35.80
2018-03-25T03:02:35.756Z,38.80
2018-03-25T03:03:35.606Z,38.40
2018-03-25T03:05:29.193Z,36.50
2018-03-25T03:06:29.557Z,37.30
2018-03-25T03:08:22.196Z,37.40
2018-03-25T03:09:22.158Z,38.80
2018-03-25T03:11:30.176Z,40.00
2018-03-25T03:12:30.145Z,40.90
2018-03-25T03:14:23.750Z,40.20
2018-03-25T03:15:26.061Z,40.30
2018-03-25T03:17:16.811Z,44.50
2018-03-25T03:18:16.693Z,47.60
2018-03-25T03:20:10.091Z,44.40
2018-03-25T03:21:10.015Z,46.60
2018-03-25T03:23:03.546Z,43.60
2018-03-25T03:24:03.404Z,47.60
2018-03-25T03:25:56.797Z,48.70
2018-03-25T03:26:56.744Z,48.00
2018-03-25T03:28:50.128Z,49.00
2018-03-25T03:29:50.678Z,49.40
2018-03-25T03:31:43.555Z,46.80
2018-03-25T03:32:43.423Z,42.00
2018-03-25T03:34:36.878Z,44.80
2018-03-25T03:35:37.376Z,47.50
2018-03-25T03:37:30.236Z,43.10
2018-03-25T03:38:30.138Z,44.00
2018-03-25T03:40:23.601Z,43.80
2018-03-25T03:41:23.516Z,43.90
2018-03-25T03:43:17.476Z,44.10
2018-03-25T03:44:16.883Z,41.60
2018-03-25T03:46:11.369Z,41.70
2018-03-25T03:47:10.218Z,40.70
2018-03-25T03:49:03.590Z,40.50
2018-03-25T03:50:03.524Z,42.20
2018-03-25T03:52:03.940Z,40.50
2018-03-25T03:53:03.899Z,42.80
2018-03-25T03:55:02.663Z,36.40
2018-03-25T03:56:01.805Z,39.80
2018-03-25T03:57:55.142Z,37.90
2018-03-25T03:58:55.139Z,40.70
2018-03-25T04:00:48.840Z,40.80
2018-03-25T04:01:48.483Z,47.40
2018-03-25T04:03:42.412Z,40.50
2018-03-25T04:04:41.812Z,40.20
2018-03-25T04:06:35.516Z,42.30
2018-03-25T04:07:35.164Z,41.20
2018-03-25T04:09:28.639Z,41.90
2018-03-25T04:10:28.536Z,41.20
2018-03-25T04:12:22.211Z,45.80
2018-03-25T04:13:21.878Z,42.10
2018-03-25T04:15:15.275Z,43.70
2018-03-25T04:16:15.252Z,41.60
2018-03-25T04:18:08.928Z,41.50
2018-03-25T04:19:08.580Z,40.20
2018-03-25T04:21:01.650Z,39.30
2018-03-25T04:22:01.419Z,37.00
2018-03-25T04:23:54.318Z,38.80
2018-03-25T04:24:54.260Z,40.60
2018-03-25T04:26:47.630Z,42.90
2018-03-25T04:27:48.182Z,42.10
2018-03-25T04:29:42.629Z,39.40
2018-03-25T04:30:41.637Z,39.00
2018-03-25T04:32:35.386Z,36.40
2018-03-25T04:33:35.000Z,39.70
2018-03-25T04:35:28.928Z,39.80
2018-03-25T04:36:28.128Z,39.50
2018-03-25T04:38:21.594Z,41.30
2018-03-25T04:39:21.473Z,45.10
2018-03-25T04:41:15.484Z,41.80
2018-03-25T04:42:15.388Z,45.20
2018-03-25T04:44:08.802Z,50.30
2018-03-25T04:45:08.735Z,47.20
2018-03-25T04:47:02.823Z,45.20
2018-03-25T04:48:02.120Z,47.40
2018-03-25T04:49:56.587Z,47.90
2018-03-25T04:52:09.483Z,49.00
2018-03-25T04:53:08.869Z,49.50
2018-03-25T04:55:02.568Z,49.20
2018-03-25T04:56:02.541Z,56.70
2018-03-25T04:57:55.995Z,56.80
2018-03-25T04:58:55.961Z,54.90
2018-03-25T05:00:49.928Z,47.90
2018-03-25T05:01:49.481Z,48.60
2018-03-25T05:03:43.270Z,48.00
2018-03-25T05:04:42.950Z,48.60
2018-03-25T05:06:36.614Z,50.80
2018-03-25T05:07:36.192Z,44.10
2018-03-25T05:09:30.471Z,45.80
2018-03-25T05:10:30.381Z,47.50
2018-03-25T05:12:23.771Z,49.50
2018-03-25T05:13:23.709Z,49.90
2018-03-25T05:15:16.915Z,51.30
2018-03-25T05:16:16.615Z,50.60
2018-03-25T05:18:10.349Z,51.20
2018-03-25T05:19:09.983Z,49.70
2018-03-25T05:21:03.592Z,54.10
2018-03-25T05:22:03.138Z,54.60
2018-03-25T05:23:56.863Z,52.80
2018-03-25T05:24:56.884Z,50.60
2018-03-25T05:26:50.697Z,46.90
2018-03-25T05:27:50.456Z,47.30
2018-03-25T05:29:43.256Z,49.20
2018-03-25T05:30:43.155Z,47.80
2018-03-25T05:32:36.721Z,46.90
2018-03-25T05:33:36.322Z,50.00
2018-03-25T05:35:30.198Z,46.30
2018-03-25T05:36:29.751Z,46.30
2018-03-25T05:38:23.493Z,48.90
2018-03-25T05:39:23.047Z,50.50
2018-03-25T05:41:17.036Z,51.00
2018-03-25T05:42:16.444Z,50.00
2018-03-25T05:44:09.773Z,51.00
2018-03-25T05:45:09.734Z,57.90
2018-03-25T05:47:02.773Z,49.10
2018-03-25T05:48:02.596Z,47.40
2018-03-25T05:49:55.659Z,48.30
2018-03-25T05:50:55.461Z,46.40
2018-03-25T05:52:48.790Z,50.40
2018-03-25T05:53:48.764Z,47.20
2018-03-25T05:55:42.173Z,44.90
2018-03-25T05:56:42.120Z,47.90
2018-03-25T05:58:35.475Z,46.40
2018-03-25T05:59:35.428Z,43.20
2018-03-25T06:01:29.880Z,43.40
2018-03-25T06:02:29.774Z,41.70
2018-03-25T06:04:23.322Z,41.50
2018-03-25T06:05:23.147Z,38.20
2018-03-25T06:07:16.554Z,37.50
2018-03-25T06:08:16.488Z,37.80
2018-03-25T06:10:37.339Z,36.70
2018-03-25T06:11:37.307Z,36.70
2018-03-25T06:13:31.016Z,38.40
2018-03-25T06:15:44.138Z,38.10
2018-03-25T06:16:44.037Z,35.10
2018-03-25T06:18:37.765Z,38.00
2018-03-25T06:19:37.353Z,36.70
2018-03-25T06:21:30.795Z,37.60
2018-03-25T06:22:30.734Z,33.70
2018-03-25T06:24:25.612Z,34.60
2018-03-25T06:25:24.100Z,39.60
2018-03-25T06:27:17.383Z,33.60
2018-03-25T06:28:17.248Z,32.80
2018-03-25T06:30:10.963Z,30.20
2018-03-25T06:31:10.590Z,31.30
2018-03-25T06:33:04.902Z,33.30
2018-03-25T06:34:03.943Z,30.10
2018-03-25T06:35:57.754Z,32.30
2018-03-25T06:36:57.325Z,32.50
2018-03-25T06:38:51.152Z,30.20
2018-03-25T06:39:50.712Z,29.50
2018-03-25T06:41:44.126Z,27.20
2018-03-25T06:42:43.965Z,28.20
2018-03-25T06:44:37.765Z,27.20
2018-03-25T06:45:37.448Z,27.40
2018-03-25T06:47:31.093Z,26.20
2018-03-25T06:48:31.011Z,26.50
2018-03-25T06:50:24.530Z,27.00
2018-03-25T06:51:24.084Z,29.90
2018-03-25T06:53:17.735Z,26.90
2018-03-25T06:54:17.379Z,27.40
2018-03-25T06:56:10.611Z,25.60
2018-03-25T06:57:10.254Z,27.30
2018-03-25T06:59:04.019Z,24.50
2018-03-25T07:00:06.189Z,25.20
2018-03-25T07:01:58.161Z,26.00
2018-03-25T07:02:57.980Z,26.10
2018-03-25T07:04:50.915Z,25.50
2018-03-25T07:05:50.833Z,24.30
2018-03-25T07:07:43.844Z,25.70
2018-03-25T07:08:43.717Z,29.20
2018-03-25T07:10:38.638Z,28.10
2018-03-25T07:11:36.544Z,26.90
2018-03-25T07:13:30.002Z,28.30
2018-03-25T07:14:29.922Z,59.50
2018-03-25T07:16:23.284Z,36.30
2018-03-25T07:17:23.257Z,35.40
2018-03-25T07:19:16.125Z,29.20
2018-03-25T07:20:16.107Z,27.30
2018-03-25T07:22:09.068Z,27.30
2018-03-25T07:23:08.968Z,35.10
2018-03-25T07:25:02.112Z,29.40
2018-03-25T07:26:01.833Z,40.50
2018-03-25T07:27:55.315Z,28.20
2018-03-25T07:28:54.695Z,27.40
2018-03-25T07:30:48.162Z,24.60
2018-03-25T07:31:48.049Z,25.30
2018-03-25T07:33:41.043Z,26.20
2018-03-25T07:34:40.915Z,24.80
2018-03-25T07:36:33.810Z,23.70
2018-03-25T07:37:33.776Z,25.30
2018-03-25T07:39:26.777Z,26.80
2018-03-25T07:40:26.639Z,26.60
2018-03-25T07:42:20.027Z,26.20
2018-03-25T07:43:19.996Z,28.50
2018-03-25T07:45:13.401Z,29.10
2018-03-25T07:46:13.359Z,31.00
2018-03-25T07:48:06.735Z,26.10
2018-03-25T07:49:06.708Z,29.40
2018-03-25T07:50:59.612Z,29.70
2018-03-25T07:51:59.650Z,26.00
2018-03-25T07:53:52.597Z,27.60
2018-03-25T07:54:52.557Z,26.40
2018-03-25T07:56:46.452Z,26.50
2018-03-25T07:57:45.841Z,28.00
2018-03-25T07:59:38.734Z,28.00
2018-03-25T08:00:38.717Z,28.10
2018-03-25T08:02:32.188Z,25.30
2018-03-25T08:03:32.069Z,26.80
2018-03-25T08:05:25.464Z,30.50
2018-03-25T08:06:25.428Z,27.90
2018-03-25T08:08:18.885Z,26.10
2018-03-25T08:09:18.775Z,25.40
2018-03-25T08:11:11.747Z,27.30
2018-03-25T08:12:11.680Z,28.90
2018-03-25T08:14:04.609Z,28.00
2018-03-25T08:15:04.578Z,25.10
2018-03-25T08:16:57.966Z,25.30
2018-03-25T08:17:57.938Z,24.70
2018-03-25T08:19:50.876Z,23.70
2018-03-25T08:20:50.807Z,25.50
2018-03-25T08:22:44.191Z,26.30
2018-03-25T08:23:44.157Z,26.10
2018-03-25T08:25:37.072Z,24.70
2018-03-25T08:26:37.013Z,23.60
2018-03-25T08:28:29.944Z,27.90
2018-03-25T08:29:29.884Z,29.40
2018-03-25T08:31:23.271Z,27.70
2018-03-25T08:32:23.237Z,30.30
2018-03-25T08:34:16.145Z,25.80
2018-03-25T08:35:16.110Z,26.20
2018-03-25T08:37:09.523Z,29.80
2018-03-25T08:38:09.484Z,29.90
2018-03-25T08:40:02.354Z,30.90
2018-03-25T08:41:02.318Z,28.20
2018-03-25T08:42:55.276Z,29.60
2018-03-25T08:43:55.183Z,32.10
2018-03-25T08:45:48.711Z,28.60
2018-03-25T08:46:48.689Z,29.90
2018-03-25T08:48:41.645Z,29.00
2018-03-25T08:49:41.543Z,29.20
2018-03-25T08:51:34.983Z,30.00
2018-03-25T08:52:34.903Z,29.20
2018-03-25T08:54:27.795Z,30.00
2018-03-25T08:55:27.762Z,28.70
2018-03-25T08:57:21.189Z,29.70
2018-03-25T08:58:21.158Z,29.20
2018-03-25T09:00:14.827Z,28.80
2018-03-25T09:01:14.027Z,27.80
2018-03-25T09:03:07.137Z,28.00
2018-03-25T09:04:06.865Z,30.00
2018-03-25T09:06:00.931Z,27.90
2018-03-25T09:06:59.765Z,27.80
2018-03-25T09:08:52.672Z,28.60
2018-03-25T09:09:52.615Z,26.70
2018-03-25T09:11:45.547Z,28.00
2018-03-25T09:12:45.489Z,29.80
2018-03-25T09:14:38.395Z,30.20
2018-03-25T09:15:38.355Z,28.20
2018-03-25T09:17:31.324Z,31.50
2018-03-25T09:18:31.296Z,29.00
2018-03-25T09:20:24.598Z,28.30
2018-03-25T09:21:24.561Z,28.50
2018-03-25T09:23:17.465Z,31.80
2018-03-25T09:24:17.432Z,28.20
2018-03-25T09:26:10.830Z,29.60
2018-03-25T09:27:10.785Z,30.70
2018-03-25T09:29:04.200Z,27.10
2018-03-25T09:30:04.129Z,27.10
2018-03-25T09:31:57.186Z,28.30
2018-03-25T09:32:57.049Z,26.40
2018-03-25T09:34:50.465Z,28.10
2018-03-25T09:35:50.994Z,29.10
2018-03-25T09:37:43.772Z,29.80
2018-03-25T09:38:43.736Z,28.90
2018-03-25T09:40:37.176Z,29.90
2018-03-25T09:41:37.103Z,27.20
2018-03-25T09:43:30.087Z,28.70
2018-03-25T09:44:29.991Z,27.70
2018-03-25T09:46:23.305Z,29.70
2018-03-25T09:47:22.869Z,28.50
2018-03-25T09:49:15.764Z,28.30
2018-03-25T09:50:15.732Z,28.00
2018-03-25T09:52:08.832Z,29.00
2018-03-25T09:53:08.607Z,30.00
2018-03-25T09:55:01.653Z,30.30
2018-03-25T09:56:01.477Z,29.10
2018-03-25T09:57:54.445Z,32.20
2018-03-25T09:58:54.332Z,29.90
2018-03-25T10:00:47.219Z,28.60
2018-03-25T10:01:47.203Z,28.60
2018-03-25T10:03:40.611Z,29.10
2018-03-25T10:04:40.601Z,27.30
2018-03-25T10:06:33.949Z,28.20
2018-03-25T10:07:33.960Z,28.70
2018-03-25T10:09:27.397Z,28.10
2018-03-25T10:10:27.276Z,29.10
2018-03-25T10:12:20.263Z,29.70
2018-03-25T10:13:20.151Z,30.40
2018-03-25T10:15:13.041Z,29.40
2018-03-25T10:16:13.264Z,28.80
2018-03-25T10:18:06.063Z,27.40
2018-03-25T10:19:05.883Z,28.10
2018-03-25T10:20:59.284Z,29.60
2018-03-25T10:21:59.248Z,31.20
2018-03-25T10:23:52.198Z,31.10
2018-03-25T10:24:52.120Z,31.60
2018-03-25T10:26:45.564Z,30.80
2018-03-25T10:27:45.469Z,28.00
2018-03-25T10:29:38.874Z,28.50
2018-03-25T10:30:38.830Z,29.80
2018-03-25T10:32:31.727Z,28.80
2018-03-25T10:33:31.695Z,28.40
2018-03-25T10:35:25.128Z,29.30
2018-03-25T10:36:25.071Z,30.00
2018-03-25T10:38:17.945Z,29.30
2018-03-25T10:39:17.920Z,30.00
2018-03-25T10:41:10.937Z,29.50
2018-03-25T10:42:10.806Z,29.20
2018-03-25T10:44:03.712Z,31.00
2018-03-25T10:45:03.674Z,32.10
2018-03-25T10:46:56.565Z,30.10
2018-03-25T10:47:56.538Z,29.50
2018-03-25T10:49:49.518Z,29.90
2018-03-25T10:50:49.416Z,28.20
2018-03-25T10:52:42.298Z,28.40
2018-03-25T10:53:42.291Z,30.30
2018-03-25T10:55:35.168Z,32.20
2018-03-25T10:56:35.141Z,30.10
2018-03-25T10:58:28.048Z,28.80
2018-03-25T10:59:28.015Z,29.60
2018-03-25T11:01:20.920Z,27.90
2018-03-25T11:02:20.892Z,28.40
2018-03-25T11:04:14.353Z,28.80
2018-03-25T11:05:13.760Z,30.20
2018-03-25T11:07:06.643Z,29.00
2018-03-25T11:08:06.617Z,30.00
2018-03-25T11:09:59.535Z,27.60
2018-03-25T11:10:59.495Z,28.50
2018-03-25T11:12:52.389Z,29.70
2018-03-25T11:13:52.414Z,28.10
2018-03-25T11:15:45.760Z,28.40
2018-03-25T11:16:46.302Z,28.10
2018-03-25T11:18:39.238Z,29.40
2018-03-25T11:19:39.108Z,29.90
2018-03-25T11:21:32.158Z,28.10
2018-03-25T11:22:31.968Z,29.20
2018-03-25T11:24:25.375Z,29.10
2018-03-25T11:25:25.315Z,30.20
2018-03-25T11:27:18.727Z,29.50
2018-03-25T11:28:18.697Z,30.20
2018-03-25T11:30:11.601Z,31.30
2018-03-25T11:31:11.567Z,29.10
2018-03-25T11:33:04.556Z,29.90
2018-03-25T11:34:04.429Z,29.40
2018-03-25T11:35:57.325Z,27.60
2018-03-25T11:36:57.293Z,28.50
2018-03-25T11:38:50.695Z,30.20
2018-03-25T11:39:50.652Z,28.80
2018-03-25T11:41:44.039Z,29.10
2018-03-25T11:42:44.027Z,29.90
2018-03-25T11:44:36.974Z,31.20
2018-03-25T11:45:36.887Z,31.50
2018-03-25T11:47:29.810Z,28.20
2018-03-25T11:48:29.752Z,29.50
2018-03-25T11:50:23.153Z,29.30
2018-03-25T11:51:23.110Z,30.50
2018-03-25T11:53:16.073Z,33.00
2018-03-25T11:54:15.992Z,32.30
2018-03-25T11:56:08.900Z,35.70
2018-03-25T11:57:08.886Z,32.40
2018-03-25T11:59:02.258Z,31.40
2018-03-25T12:00:02.243Z,31.40
2018-03-25T12:01:55.641Z,31.20
2018-03-25T12:02:55.590Z,31.90
2018-03-25T12:04:48.476Z,32.30
2018-03-25T12:05:48.460Z,31.60
2018-03-25T12:07:41.858Z,33.90
2018-03-25T12:08:41.843Z,31.80
2018-03-25T12:10:35.215Z,32.00
2018-03-25T12:11:35.195Z,30.40
2018-03-25T12:13:28.200Z,28.70
2018-03-25T12:14:28.058Z,29.40
2018-03-25T12:16:22.016Z,27.20
2018-03-25T12:17:21.438Z,29.90
2018-03-25T12:19:14.323Z,31.40
2018-03-25T12:20:14.301Z,30.80
2018-03-25T12:22:07.313Z,29.90
2018-03-25T12:23:07.212Z,27.60
2018-03-25T12:25:00.567Z,31.30
2018-03-25T12:26:00.658Z,36.90
2018-03-25T12:27:53.426Z,37.00
2018-03-25T12:28:53.430Z,32.90
2018-03-25T12:30:46.787Z,32.40
2018-03-25T12:31:46.758Z,30.40
2018-03-25T12:33:40.151Z,31.60
2018-03-25T12:34:40.118Z,30.30
2018-03-25T12:36:33.162Z,38.10
2018-03-25T12:37:33.012Z,33.00
2018-03-25T12:39:26.481Z,42.40
2018-03-25T12:40:26.357Z,41.30
2018-03-25T12:42:19.843Z,36.80
2018-03-25T12:43:19.705Z,40.80
2018-03-25T12:45:13.111Z,37.50
2018-03-25T12:46:13.090Z,35.20
2018-03-25T12:48:06.062Z,30.40
2018-03-25T12:49:05.956Z,31.00
2018-03-25T12:50:59.352Z,29.40
2018-03-25T12:51:59.317Z,29.70
2018-03-25T12:53:52.289Z,30.50
2018-03-25T12:54:52.198Z,30.60
2018-03-25T12:56:45.082Z,28.70
2018-03-25T12:57:45.063Z,27.70
2018-03-25T12:59:38.094Z,26.60
2018-03-25T13:00:37.938Z,28.60
2018-03-25T13:02:31.328Z,29.40
2018-03-25T13:03:31.298Z,28.90
2018-03-25T13:05:24.832Z,39.80
2018-03-25T13:06:24.685Z,32.30
2018-03-25T13:08:17.693Z,31.80
2018-03-25T13:09:17.531Z,30.00
2018-03-25T13:11:10.556Z,29.70
2018-03-25T13:12:10.405Z,33.30
2018-03-25T13:14:03.421Z,26.90
2018-03-25T13:15:03.267Z,27.90
2018-03-25T13:16:56.160Z,31.50
2018-03-25T13:17:56.156Z,33.30
2018-03-25T13:19:49.036Z,25.70
2018-03-25T13:20:49.031Z,27.20
2018-03-25T13:22:42.396Z,30.90
2018-03-25T13:23:42.374Z,31.30
2018-03-25T13:25:35.273Z,28.10
2018-03-25T13:26:35.249Z,27.80
2018-03-25T13:28:28.289Z,27.70
2018-03-25T13:29:28.118Z,26.10
2018-03-25T13:31:21.609Z,26.20
2018-03-25T13:32:21.477Z,26.70
2018-03-25T13:34:14.509Z,27.30
2018-03-25T13:35:14.447Z,28.10
2018-03-25T13:37:07.449Z,26.00
2018-03-25T13:38:07.323Z,26.10
2018-03-25T13:40:00.816Z,26.80
2018-03-25T13:41:00.685Z,27.60
2018-03-25T13:42:53.672Z,29.00
2018-03-25T13:43:53.554Z,29.70
2018-03-25T13:45:46.936Z,27.10
2018-03-25T13:46:46.915Z,26.40
2018-03-25T13:48:40.399Z,29.70
2018-03-25T13:49:40.298Z,27.30
2018-03-25T13:51:33.204Z,30.10
2018-03-25T13:52:33.153Z,28.30
2018-03-25T13:54:26.127Z,28.60
2018-03-25T13:55:26.056Z,28.10
2018-03-25T13:57:19.065Z,24.50
2018-03-25T13:58:18.915Z,26.90
2018-03-25T14:00:12.020Z,27.60
2018-03-25T14:01:11.794Z,27.30
2018-03-25T14:03:04.725Z,26.90
2018-03-25T14:04:04.698Z,26.30
2018-03-25T14:05:58.066Z,25.30
2018-03-25T14:06:58.023Z,27.80
2018-03-25T14:08:51.032Z,30.50
2018-03-25T14:09:50.923Z,28.80
2018-03-25T14:11:43.800Z,26.80
2018-03-25T14:12:43.796Z,26.90
2018-03-25T14:14:36.754Z,29.30
2018-03-25T14:15:36.652Z,28.30
2018-03-25T14:17:29.687Z,26.50
2018-03-25T14:18:29.521Z,26.20
2018-03-25T14:20:23.050Z,28.70
2018-03-25T14:21:22.890Z,26.50
2018-03-25T14:23:15.926Z,26.20
2018-03-25T14:24:15.747Z,28.10
2018-03-25T14:26:09.291Z,28.00
2018-03-25T14:27:09.125Z,27.10
2018-03-25T14:29:02.413Z,28.30
2018-03-25T14:30:02.450Z,26.70
2018-03-25T14:31:55.432Z,28.20
2018-03-25T14:32:55.277Z,27.80
2018-03-25T14:34:48.148Z,26.50
2018-03-25T14:35:48.136Z,27.60
2018-03-25T14:37:41.598Z,29.70
2018-03-25T14:38:41.491Z,28.00
2018-03-25T14:40:34.459Z,29.00
2018-03-25T14:41:34.426Z,27.50
2018-03-25T14:43:27.365Z,27.60
2018-03-25T14:44:27.339Z,28.40
2018-03-25T14:46:20.542Z,29.80
2018-03-25T14:47:20.205Z,31.10
2018-03-25T14:49:15.140Z,29.70
2018-03-25T14:50:14.994Z,29.60
2018-03-25T14:52:09.747Z,30.50
2018-03-25T14:53:07.867Z,29.70
2018-03-25T14:55:01.251Z,29.00
2018-03-25T14:56:01.249Z,28.50
2018-03-25T14:57:54.435Z,29.00
2018-03-25T14:58:54.103Z,27.50
2018-03-25T15:00:47.110Z,29.30
2018-03-25T15:01:47.209Z,28.60
2018-03-25T15:03:40.939Z,27.20
2018-03-25T15:04:40.402Z,28.60
2018-03-25T15:06:33.363Z,30.90
2018-03-25T15:07:33.221Z,28.20
2018-03-25T15:09:26.192Z,28.30
2018-03-25T15:10:26.103Z,28.60
2018-03-25T15:12:20.150Z,25.60
2018-03-25T15:13:19.462Z,28.00
2018-03-25T15:15:12.659Z,30.00
2018-03-25T15:16:12.496Z,30.40
2018-03-25T15:18:05.492Z,30.00
2018-03-25T15:19:05.479Z,29.50
2018-03-25T15:20:58.944Z,27.50
2018-03-25T15:21:58.346Z,27.50
2018-03-25T15:23:51.795Z,30.30
2018-03-25T15:24:51.201Z,28.60
2018-03-25T15:26:44.591Z,27.30
2018-03-25T15:27:44.567Z,26.70
2018-03-25T15:29:37.479Z,25.70
2018-03-25T15:30:37.440Z,27.20
2018-03-25T15:32:30.849Z,26.10
2018-03-25T15:33:30.811Z,28.20
2018-03-25T15:35:23.827Z,29.40
2018-03-25T15:36:23.706Z,26.30
2018-03-25T15:38:16.746Z,28.00
2018-03-25T15:39:16.602Z,30.80
2018-03-25T15:41:09.977Z,27.80
2018-03-25T15:42:09.996Z,26.40
2018-03-25T15:44:03.544Z,27.50
2018-03-25T15:45:03.589Z,25.70
2018-03-25T15:46:56.855Z,28.30
2018-03-25T15:47:56.774Z,27.80
2018-03-25T15:49:50.366Z,26.50
2018-03-25T15:50:50.117Z,25.00
2018-03-25T15:52:43.570Z,28.40
2018-03-25T15:53:43.080Z,28.40
2018-03-25T15:55:35.995Z,27.70
2018-03-25T15:56:35.982Z,29.70
2018-03-25T15:58:29.557Z,29.30
2018-03-25T15:59:29.372Z,26.50
2018-03-25T16:01:22.257Z,27.20
2018-03-25T16:02:22.239Z,26.30
2018-03-25T16:04:15.655Z,25.60
2018-03-25T16:05:15.589Z,28.70
2018-03-25T16:07:08.499Z,27.20
2018-03-25T16:08:08.509Z,28.30
2018-03-25T16:10:01.385Z,30.00
2018-03-25T16:11:01.351Z,28.00
2018-03-25T16:12:54.744Z,27.40
2018-03-25T16:13:54.725Z,25.30
2018-03-25T16:15:48.117Z,29.30
2018-03-25T16:16:48.106Z,27.20
2018-03-25T16:18:41.056Z,25.50
2018-03-25T16:19:40.990Z,25.50
2018-03-25T16:21:34.964Z,28.00
2018-03-25T16:22:34.400Z,23.80
2018-03-25T16:24:27.289Z,27.20
2018-03-25T16:25:27.255Z,24.90
2018-03-25T16:27:20.738Z,24.10
2018-03-25T16:28:20.611Z,28.20
2018-03-25T16:30:14.071Z,26.40
2018-03-25T16:31:13.980Z,26.30
2018-03-25T16:33:07.600Z,27.10
2018-03-25T16:34:07.375Z,26.60
2018-03-25T16:36:00.288Z,29.00
2018-03-25T16:37:00.253Z,25.40
2018-03-25T16:38:54.618Z,27.80
2018-03-25T16:39:53.768Z,25.40
2018-03-25T16:41:47.748Z,25.40
2018-03-25T16:42:47.148Z,27.40
2018-03-25T16:44:41.874Z,29.90
2018-03-25T16:45:40.430Z,31.00
2018-03-25T16:47:33.534Z,30.10
2018-03-25T16:48:33.246Z,30.20
2018-03-25T16:50:26.686Z,29.50
2018-03-25T16:51:26.626Z,29.60
2018-03-25T16:53:20.185Z,31.70
2018-03-25T16:54:20.123Z,31.30
2018-03-25T16:56:13.705Z,29.30
2018-03-25T16:57:12.922Z,32.10
2018-03-25T16:59:08.514Z,29.90
2018-03-25T17:00:07.546Z,32.50
2018-03-25T17:02:00.698Z,31.50
2018-03-25T17:03:00.369Z,29.40
2018-03-25T17:04:53.778Z,30.50
2018-03-25T17:05:53.742Z,32.10
2018-03-25T17:07:47.133Z,35.20
2018-03-25T17:08:46.612Z,30.50
2018-03-25T17:10:39.568Z,34.00
2018-03-25T17:11:39.478Z,33.30
2018-03-25T17:15:14.660Z,32.50
2018-03-25T17:16:14.609Z,33.80
2018-03-25T17:18:07.543Z,29.10
2018-03-25T17:19:07.767Z,30.50
2018-03-25T17:21:00.630Z,30.30
2018-03-25T17:22:00.442Z,31.10
2018-03-25T17:23:53.309Z,32.70
2018-03-25T17:24:53.289Z,32.50
2018-03-25T17:26:46.199Z,32.80
2018-03-25T17:27:46.161Z,33.00
2018-03-25T17:29:39.153Z,36.70
2018-03-25T17:30:39.591Z,35.80
2018-03-25T17:32:32.017Z,36.60
2018-03-25T17:33:32.010Z,35.00
2018-03-25T17:35:24.868Z,37.30
2018-03-25T17:36:24.865Z,38.50
2018-03-25T17:38:17.865Z,37.60
2018-03-25T17:39:20.125Z,35.40
2018-03-25T17:41:10.603Z,36.00
2018-03-25T17:42:10.578Z,38.50
2018-03-25T17:44:04.767Z,38.90
2018-03-25T17:45:04.539Z,41.10
2018-03-25T17:46:57.438Z,37.10
2018-03-25T17:49:10.833Z,38.30
2018-03-25T17:50:10.796Z,37.70
2018-03-25T17:52:06.831Z,40.00
2018-03-25T17:53:04.177Z,38.60
2018-03-25T17:54:57.234Z,39.00
2018-03-25T17:55:57.006Z,38.40
2018-03-25T17:57:52.023Z,40.00
2018-03-25T17:58:51.369Z,40.00
2018-03-25T18:00:45.520Z,38.60
2018-03-25T18:01:45.382Z,36.90
2018-03-25T18:03:38.952Z,39.50
2018-03-25T18:04:38.474Z,41.00
2018-03-25T18:06:37.426Z,41.70
2018-03-25T18:09:37.875Z,41.80
2018-03-25T18:10:37.146Z,46.80
2018-03-25T18:12:30.979Z,40.90
2018-03-25T18:13:30.877Z,39.60
2018-03-25T18:15:23.884Z,45.30
2018-03-25T18:16:23.396Z,40.60
2018-03-25T18:18:17.123Z,41.70
2018-03-25T18:19:16.860Z,39.30
2018-03-25T18:21:11.002Z,38.50
2018-03-25T18:22:11.267Z,37.10
2018-03-25T18:24:05.976Z,40.50
2018-03-25T18:25:03.740Z,37.60
2018-03-25T18:26:58.219Z,39.30
2018-03-25T18:27:57.056Z,41.00
2018-03-25T18:29:51.431Z,40.00
2018-03-25T18:30:51.437Z,40.70
2018-03-25T18:32:44.869Z,40.80
2018-03-25T18:33:44.775Z,38.00
2018-03-25T18:35:38.447Z,39.70
2018-03-25T18:36:38.167Z,40.40
2018-03-25T18:38:31.711Z,40.30
2018-03-25T18:39:31.603Z,42.70
2018-03-25T18:41:24.431Z,41.50